createdAt,value
2019-06-20T00:00:57.127Z,18.00
2019-06-20T00:03:30.941Z,18.00
2019-06-20T00:06:04.838Z,17.90
2019-06-20T00:08:40.456Z,18.00
2019-06-20T00:11:14.174Z,17.90
2019-06-20T00:13:47.983Z,18.00
2019-06-20T00:16:21.759Z,18.00
2019-06-20T00:18:55.700Z,18.00
2019-06-20T00:21:29.551Z,17.90
2019-06-20T00:24:03.418Z,17.90
2019-06-20T00:26:37.327Z,17.80
2019-06-20T00:29:11.147Z,17.90
2019-06-20T00:31:47.919Z,18.00
2019-06-20T00:34:21.851Z,18.00
2019-06-20T00:36:55.829Z,18.10
2019-06-20T00:39:29.590Z,18.00
2019-06-20T00:42:03.556Z,18.00
2019-06-20T00:44:38.428Z,18.10
2019-06-20T00:47:12.301Z,18.00
2019-06-20T00:49:46.099Z,18.00
2019-06-20T00:52:19.981Z,18.00
2019-06-20T00:54:53.809Z,18.10
2019-06-20T00:57:27.795Z,18.10
2019-06-20T01:00:02.217Z,18.10
2019-06-20T01:02:36.178Z,18.10
2019-06-20T01:05:10.427Z,18.10
2019-06-20T01:07:44.375Z,18.00
2019-06-20T01:10:19.310Z,17.90
2019-06-20T01:12:53.279Z,17.90
2019-06-20T01:15:27.120Z,17.70
2019-06-20T01:18:01.601Z,17.50
2019-06-20T01:20:35.431Z,17.20
2019-06-20T01:23:09.308Z,17.40
2019-06-20T01:25:45.033Z,17.50
2019-06-20T01:28:18.997Z,17.40
2019-06-20T01:30:52.783Z,17.50
2019-06-20T01:33:26.627Z,17.50
2019-06-20T01:36:01.134Z,17.30
2019-06-20T01:38:35.028Z,17.40
2019-06-20T01:41:08.843Z,17.20
2019-06-20T01:43:50.688Z,17.10
2019-06-20T01:46:18.570Z,17.10
2019-06-20T01:48:52.420Z,17.10
2019-06-20T01:51:26.446Z,17.20
2019-06-20T01:54:00.918Z,17.30
2019-06-20T01:56:34.770Z,17.30
2019-06-20T01:59:08.671Z,17.40
2019-06-20T02:01:42.561Z,17.40
2019-06-20T02:04:17.220Z,17.50
2019-06-20T02:06:53.597Z,17.50
2019-06-20T02:09:27.476Z,17.20
2019-06-20T02:12:01.879Z,17.10
2019-06-20T02:14:35.909Z,17.20
2019-06-20T02:17:09.576Z,17.10
2019-06-20T02:19:43.438Z,17.10
2019-06-20T02:22:17.359Z,17.00
2019-06-20T02:24:51.240Z,17.00
2019-06-20T02:27:25.296Z,17.00
2019-06-20T02:29:59.750Z,17.20
2019-06-20T02:32:33.615Z,17.30
2019-06-20T02:35:08.194Z,17.40
2019-06-20T02:37:41.978Z,17.30
2019-06-20T02:40:16.108Z,17.20
2019-06-20T02:42:50.697Z,17.40
2019-06-20T02:45:24.550Z,17.50
2019-06-20T02:47:58.492Z,17.40
2019-06-20T02:50:32.347Z,17.30
2019-06-20T02:53:06.642Z,17.30
2019-06-20T02:55:41.553Z,17.40
2019-06-20T02:58:15.388Z,17.60
2019-06-20T03:00:59.116Z,17.40
2019-06-20T03:03:33.036Z,17.60
2019-06-20T03:06:07.208Z,17.70
2019-06-20T03:08:41.121Z,17.80
2019-06-20T03:11:15.021Z,17.90
2019-06-20T03:13:48.839Z,17.90
2019-06-20T03:16:22.695Z,17.90
2019-06-20T03:18:56.609Z,18.00
2019-06-20T03:21:30.468Z,18.20
2019-06-20T03:24:04.435Z,18.00
2019-06-20T03:26:38.410Z,17.90
2019-06-20T03:29:12.311Z,17.90
2019-06-20T03:31:46.331Z,18.10
2019-06-20T03:34:20.474Z,18.20
2019-06-20T03:36:54.471Z,18.40
2019-06-20T03:39:28.370Z,18.40
2019-06-20T03:42:02.937Z,18.60
2019-06-20T03:44:36.711Z,18.70
2019-06-20T03:47:10.718Z,18.80
2019-06-20T03:49:44.568Z,18.90
2019-06-20T03:52:18.437Z,19.00
2019-06-20T03:54:52.337Z,19.10
2019-06-20T03:57:27.314Z,19.20
2019-06-20T04:00:01.816Z,19.30
2019-06-20T04:02:35.757Z,19.30
2019-06-20T04:05:10.719Z,19.40
2019-06-20T04:07:44.587Z,19.60
2019-06-20T04:10:18.387Z,19.70
2019-06-20T04:12:52.218Z,19.80
2019-06-20T04:15:26.177Z,19.90
2019-06-20T04:18:00.162Z,20.00
2019-06-20T04:20:34.103Z,20.10
2019-06-20T04:23:07.963Z,20.20
2019-06-20T04:25:41.834Z,20.30
2019-06-20T04:28:16.492Z,20.40
2019-06-20T04:30:50.333Z,20.50
2019-06-20T04:33:24.302Z,20.60
2019-06-20T04:35:58.204Z,20.60
2019-06-20T04:38:32.169Z,20.70
2019-06-20T04:41:06.118Z,20.70
2019-06-20T04:43:39.961Z,20.80
2019-06-20T04:46:15.468Z,20.90
2019-06-20T04:48:49.357Z,21.00
2019-06-20T04:51:23.154Z,21.10
2019-06-20T04:53:57.016Z,21.10
2019-06-20T04:56:30.800Z,21.30
2019-06-20T04:59:04.769Z,21.30
2019-06-20T05:01:38.598Z,21.40
2019-06-20T05:04:12.572Z,21.50
2019-06-20T05:06:50.868Z,21.60
2019-06-20T05:09:24.697Z,21.70
2019-06-20T05:11:58.620Z,21.60
2019-06-20T05:14:33.730Z,21.80
2019-06-20T05:17:07.571Z,21.90
2019-06-20T05:19:41.429Z,21.90
2019-06-20T05:22:15.267Z,21.80
2019-06-20T05:24:49.256Z,21.70
2019-06-20T05:27:23.020Z,21.60
2019-06-20T05:29:56.912Z,21.90
2019-06-20T05:32:30.765Z,22.00
2019-06-20T05:35:05.643Z,22.10
2019-06-20T05:37:39.433Z,22.20
2019-06-20T05:40:13.896Z,22.20
2019-06-20T05:42:47.710Z,22.30
2019-06-20T05:45:22.757Z,22.40
2019-06-20T05:47:59.282Z,22.40
2019-06-20T05:50:33.180Z,22.50
2019-06-20T05:53:07.004Z,22.50
2019-06-20T05:55:41.968Z,22.60
2019-06-20T05:58:15.879Z,22.60
2019-06-20T06:00:49.890Z,22.60
2019-06-20T06:03:24.785Z,22.60
2019-06-20T06:05:58.647Z,22.60
2019-06-20T06:08:34.108Z,22.60
2019-06-20T06:11:08.771Z,22.40
2019-06-20T06:13:42.719Z,22.20
2019-06-20T06:16:25.765Z,22.30
2019-06-20T06:18:52.130Z,22.20
2019-06-20T06:21:26.073Z,22.20
2019-06-20T06:24:00.019Z,22.00
2019-06-20T06:26:33.852Z,22.20
2019-06-20T06:29:07.791Z,22.00
2019-06-20T06:31:41.738Z,22.00
2019-06-20T06:34:15.468Z,22.10
2019-06-20T06:36:50.387Z,22.10
2019-06-20T06:39:24.308Z,22.30
2019-06-20T06:41:58.184Z,22.20
2019-06-20T06:44:32.004Z,22.40
2019-06-20T06:47:05.902Z,22.40
2019-06-20T06:49:40.321Z,22.50
2019-06-20T06:52:14.978Z,22.60
2019-06-20T06:54:48.771Z,22.70
2019-06-20T06:57:25.966Z,22.70
2019-06-20T07:00:01.233Z,22.50
2019-06-20T07:02:36.378Z,22.50
2019-06-20T07:05:10.797Z,22.30
2019-06-20T07:07:44.768Z,22.40
2019-06-20T07:10:20.312Z,22.50
2019-06-20T07:12:54.258Z,22.20
2019-06-20T07:15:29.145Z,22.30
2019-06-20T07:18:04.440Z,22.40
2019-06-20T07:20:39.072Z,22.60
2019-06-20T07:23:14.471Z,22.60
2019-06-20T07:25:48.213Z,22.50
2019-06-20T07:28:22.857Z,22.30
2019-06-20T07:30:56.763Z,22.50
2019-06-20T07:33:30.710Z,22.60
2019-06-20T07:36:05.962Z,22.60
2019-06-20T07:38:39.831Z,22.90
2019-06-20T07:41:14.247Z,22.80
2019-06-20T07:43:49.756Z,23.00
2019-06-20T07:46:24.376Z,22.90
2019-06-20T07:48:59.333Z,23.00
2019-06-20T07:51:33.100Z,22.90
2019-06-20T07:54:06.999Z,23.10
2019-06-20T07:56:40.868Z,23.20
2019-06-20T07:59:15.899Z,23.20
2019-06-20T08:01:49.729Z,23.30
2019-06-20T08:04:26.313Z,23.30
2019-06-20T08:07:00.180Z,22.70
2019-06-20T08:09:44.306Z,22.80
2019-06-20T08:12:09.503Z,22.60
2019-06-20T08:14:43.432Z,22.60
2019-06-20T08:17:31.565Z,22.60
2019-06-20T08:19:52.869Z,22.60
2019-06-20T08:22:27.483Z,22.70
2019-06-20T08:25:01.404Z,22.60
2019-06-20T08:27:50.902Z,22.80
2019-06-20T08:30:31.802Z,22.70
2019-06-20T08:33:11.538Z,22.80
2019-06-20T08:35:41.575Z,22.80
2019-06-20T08:38:15.378Z,22.50
2019-06-20T08:40:49.224Z,22.50
2019-06-20T08:43:23.720Z,22.60
2019-06-20T08:45:57.980Z,22.70
2019-06-20T08:48:31.871Z,22.60
2019-06-20T08:51:06.584Z,22.60
2019-06-20T08:53:40.448Z,22.60
2019-06-20T08:56:14.280Z,22.50
2019-06-20T08:58:48.201Z,22.50
2019-06-20T09:01:22.169Z,22.60
2019-06-20T09:03:57.008Z,22.60
2019-06-20T09:06:31.553Z,22.70
2019-06-20T09:09:08.351Z,22.60
2019-06-20T09:11:42.318Z,22.70
2019-06-20T09:14:16.689Z,22.90
2019-06-20T09:16:50.628Z,23.10
2019-06-20T09:19:24.428Z,23.20
2019-06-20T09:21:58.286Z,23.20
2019-06-20T09:24:32.028Z,23.30
2019-06-20T09:27:05.849Z,23.10
2019-06-20T09:29:42.019Z,23.10
2019-06-20T09:32:15.259Z,23.30
2019-06-20T09:34:51.412Z,23.20
2019-06-20T09:37:24.917Z,23.20
2019-06-20T09:39:59.191Z,23.30
2019-06-20T09:42:33.277Z,23.60
2019-06-20T09:45:12.470Z,23.50
2019-06-20T09:47:47.212Z,23.50
2019-06-20T09:50:21.650Z,23.50
2019-06-20T09:52:56.659Z,23.60
2019-06-20T09:55:30.949Z,23.70
2019-06-20T09:58:05.632Z,23.70
2019-06-20T10:00:39.742Z,23.60
2019-06-20T10:03:14.030Z,23.60
2019-06-20T10:05:49.287Z,23.90
2019-06-20T10:08:24.197Z,23.90
2019-06-20T10:10:58.137Z,23.90
2019-06-20T10:13:32.889Z,23.80
2019-06-20T10:16:06.865Z,23.90
2019-06-20T10:18:40.715Z,24.10
2019-06-20T10:21:14.696Z,24.20
2019-06-20T10:23:50.260Z,24.30
2019-06-20T10:26:24.691Z,24.20
2019-06-20T10:28:58.542Z,24.40
2019-06-20T10:31:32.477Z,24.70
2019-06-20T10:34:06.959Z,24.60
2019-06-20T10:36:40.881Z,24.70
2019-06-20T10:39:14.751Z,24.70
2019-06-20T10:41:48.679Z,24.70
2019-06-20T10:44:23.738Z,24.60
2019-06-20T10:46:57.529Z,24.60
2019-06-20T10:49:31.538Z,24.70
2019-06-20T10:52:07.537Z,24.80
2019-06-20T10:54:42.221Z,25.00
2019-06-20T10:57:16.748Z,25.00
2019-06-20T10:59:50.927Z,25.40
2019-06-20T11:02:24.752Z,25.30
2019-06-20T11:04:58.810Z,25.50
2019-06-20T11:07:32.698Z,25.50
2019-06-20T11:10:12.887Z,25.60
2019-06-20T11:12:52.339Z,25.80
2019-06-20T11:15:24.722Z,25.40
2019-06-20T11:17:58.568Z,25.40
2019-06-20T11:20:32.577Z,25.80
2019-06-20T11:23:06.372Z,25.90
2019-06-20T11:25:41.865Z,25.70
2019-06-20T11:28:16.530Z,25.20
2019-06-20T11:30:58.042Z,25.40
2019-06-20T11:33:25.993Z,25.70
2019-06-20T11:35:59.949Z,25.80
2019-06-20T11:38:33.590Z,25.70
2019-06-20T11:41:07.570Z,25.50
2019-06-20T11:43:42.230Z,25.50
2019-06-20T11:46:16.269Z,25.80
2019-06-20T11:48:50.836Z,25.40
2019-06-20T11:51:24.791Z,25.40
2019-06-20T11:53:58.510Z,25.70
2019-06-20T11:56:33.504Z,25.80
2019-06-20T11:59:07.407Z,26.00
2019-06-20T12:01:42.797Z,26.10
2019-06-20T12:04:16.689Z,26.00
2019-06-20T12:06:51.614Z,25.70
2019-06-20T12:09:25.496Z,25.60
2019-06-20T12:11:59.378Z,25.30
2019-06-20T12:14:33.289Z,25.10
2019-06-20T12:17:07.933Z,25.30
2019-06-20T12:19:42.463Z,25.10
2019-06-20T12:22:17.089Z,25.30
2019-06-20T12:24:50.967Z,25.40
2019-06-20T12:27:24.818Z,26.00
2019-06-20T12:29:58.747Z,26.20
2019-06-20T12:32:32.687Z,26.20
2019-06-20T12:35:07.680Z,26.30
2019-06-20T12:37:42.688Z,26.80
2019-06-20T12:40:17.210Z,26.90
2019-06-20T12:42:51.017Z,27.40
2019-06-20T12:45:24.950Z,27.40
2019-06-20T12:47:58.924Z,27.50
2019-06-20T12:50:32.844Z,27.60
2019-06-20T12:53:06.708Z,28.50
2019-06-20T12:55:40.621Z,28.40
2019-06-20T12:58:14.794Z,28.10
2019-06-20T13:00:48.567Z,28.50
2019-06-20T13:03:22.521Z,27.80
2019-06-20T13:05:56.307Z,28.60
2019-06-20T13:08:30.158Z,29.00
2019-06-20T13:11:03.969Z,29.00
2019-06-20T13:13:39.351Z,29.00
2019-06-20T13:16:15.010Z,28.90
2019-06-20T13:18:48.887Z,28.30
2019-06-20T13:21:23.024Z,28.50
2019-06-20T13:23:57.711Z,29.00
2019-06-20T13:26:31.616Z,29.50
2019-06-20T13:29:05.561Z,30.10
2019-06-20T13:31:56.477Z,30.10
2019-06-20T13:34:19.274Z,30.90
2019-06-20T13:36:53.881Z,31.50
2019-06-20T13:39:27.991Z,31.00
2019-06-20T13:42:02.040Z,31.20
2019-06-20T13:44:35.991Z,31.20
2019-06-20T13:47:09.830Z,30.40
2019-06-20T13:49:43.678Z,30.90
2019-06-20T13:52:18.191Z,31.90
2019-06-20T13:54:52.839Z,32.50
2019-06-20T13:57:26.630Z,32.80
2019-06-20T14:00:00.588Z,31.30
2019-06-20T14:02:34.519Z,30.40
2019-06-20T14:05:09.801Z,30.50
2019-06-20T14:07:48.446Z,31.30
2019-06-20T14:10:20.637Z,32.30
2019-06-20T14:12:54.409Z,32.40
2019-06-20T14:15:28.361Z,32.60
2019-06-20T14:18:02.295Z,31.70
2019-06-20T14:20:36.154Z,31.30
2019-06-20T14:23:09.989Z,30.50
2019-06-20T14:25:44.019Z,31.00
2019-06-20T14:28:17.777Z,32.10
2019-06-20T14:30:52.702Z,32.90
2019-06-20T14:33:26.573Z,33.90
2019-06-20T14:36:00.460Z,34.00
2019-06-20T14:38:34.391Z,34.30
2019-06-20T14:41:09.056Z,33.90
2019-06-20T14:43:44.367Z,32.80
2019-06-20T14:46:18.527Z,32.50
2019-06-20T14:48:52.556Z,31.80
2019-06-20T14:51:26.487Z,31.30
2019-06-20T14:54:00.312Z,30.70
2019-06-20T14:56:34.206Z,30.60
2019-06-20T14:59:08.012Z,30.40
2019-06-20T15:01:41.948Z,31.40
2019-06-20T15:04:15.847Z,30.90
2019-06-20T15:06:50.455Z,30.50
2019-06-20T15:09:24.444Z,30.50
2019-06-20T15:11:58.499Z,30.20
2019-06-20T15:14:32.296Z,30.20
2019-06-20T15:17:06.183Z,29.70
2019-06-20T15:19:41.829Z,29.60
2019-06-20T15:22:16.345Z,29.30
2019-06-20T15:24:53.217Z,29.10
2019-06-20T15:27:25.734Z,29.00
2019-06-20T15:29:59.570Z,28.70
2019-06-20T15:32:33.466Z,28.60
2019-06-20T15:35:09.010Z,28.60
2019-06-20T15:37:42.862Z,28.40
2019-06-20T15:40:16.879Z,28.30
2019-06-20T15:42:51.560Z,28.20
2019-06-20T15:45:26.648Z,28.60
2019-06-20T15:48:00.622Z,28.30
2019-06-20T15:50:34.521Z,28.10
2019-06-20T15:53:09.258Z,28.00
2019-06-20T15:55:43.185Z,27.80
2019-06-20T15:58:17.142Z,27.80
2019-06-20T16:00:50.982Z,27.60
2019-06-20T16:03:25.051Z,27.60
2019-06-20T16:05:58.860Z,27.50
2019-06-20T16:08:32.894Z,27.20
2019-06-20T16:11:06.864Z,27.30
2019-06-20T16:13:40.809Z,27.60
2019-06-20T16:16:15.248Z,27.60
2019-06-20T16:18:49.245Z,27.50
2019-06-20T16:21:23.760Z,27.40
2019-06-20T16:23:57.942Z,27.20
2019-06-20T16:26:31.801Z,27.10
2019-06-20T16:29:05.794Z,27.10
2019-06-20T16:31:39.682Z,27.00
2019-06-20T16:34:13.528Z,26.80
2019-06-20T16:36:47.446Z,26.80
2019-06-20T16:39:21.298Z,26.80
2019-06-20T16:41:55.879Z,26.70
2019-06-20T16:44:29.731Z,26.60
2019-06-20T16:47:03.671Z,26.50
2019-06-20T16:49:37.637Z,26.40
2019-06-20T16:52:11.722Z,26.10
2019-06-20T16:54:45.796Z,25.90
2019-06-20T16:57:19.887Z,25.80
2019-06-20T16:59:53.934Z,25.80
2019-06-20T17:02:27.808Z,25.50
2019-06-20T17:05:01.737Z,25.50
2019-06-20T17:07:35.950Z,25.60
2019-06-20T17:10:11.358Z,25.40
2019-06-20T17:12:45.290Z,25.10
2019-06-20T17:15:19.459Z,25.00
2019-06-20T17:17:53.253Z,25.00
2019-06-20T17:20:27.369Z,25.00
2019-06-20T17:23:01.278Z,25.00
2019-06-20T17:25:35.150Z,24.70
2019-06-20T17:28:09.467Z,24.80
2019-06-20T17:30:43.824Z,24.50
2019-06-20T17:33:17.960Z,24.50
2019-06-20T17:35:51.932Z,24.70
2019-06-20T17:38:26.536Z,24.60
2019-06-20T17:41:00.511Z,24.60
2019-06-20T17:43:34.331Z,24.60
2019-06-20T17:46:08.678Z,24.60
2019-06-20T17:48:42.595Z,24.70
2019-06-20T17:51:16.451Z,24.60
2019-06-20T17:53:50.334Z,24.50
2019-06-20T17:56:24.193Z,24.40
2019-06-20T17:58:58.015Z,24.60
2019-06-20T18:01:35.796Z,24.60
2019-06-20T18:04:13.838Z,24.50
2019-06-20T18:06:43.444Z,24.40
2019-06-20T18:09:17.320Z,24.40
2019-06-20T18:11:51.764Z,24.40
2019-06-20T18:14:27.201Z,24.20
2019-06-20T18:17:01.083Z,24.30
2019-06-20T18:19:35.137Z,24.10
2019-06-20T18:22:09.163Z,24.20
2019-06-20T18:24:43.173Z,24.20
2019-06-20T18:27:17.155Z,24.20
2019-06-20T18:29:51.079Z,24.30
2019-06-20T18:32:25.967Z,24.20
2019-06-20T18:35:02.119Z,24.20
2019-06-20T18:37:35.415Z,24.10
2019-06-20T18:40:11.477Z,24.10
2019-06-20T18:42:45.251Z,24.00
2019-06-20T18:45:19.611Z,24.10
2019-06-20T18:47:53.492Z,24.10
2019-06-20T18:50:27.361Z,24.00
2019-06-20T18:53:01.210Z,24.00
2019-06-20T18:55:36.170Z,23.80
2019-06-20T18:58:11.594Z,23.80
2019-06-20T19:00:45.498Z,23.80
2019-06-20T19:03:21.303Z,23.80
2019-06-20T19:05:54.710Z,23.80
2019-06-20T19:08:29.675Z,23.80
2019-06-20T19:11:03.544Z,23.80
2019-06-20T19:13:39.759Z,23.80
2019-06-20T19:16:13.996Z,23.70
2019-06-20T19:18:47.891Z,23.60
2019-06-20T19:21:21.832Z,23.50
2019-06-20T19:23:55.867Z,23.50
2019-06-20T19:26:29.641Z,23.50
2019-06-20T19:29:04.476Z,23.40
2019-06-20T19:31:39.554Z,23.20
2019-06-20T19:34:15.013Z,22.90
2019-06-20T19:36:48.863Z,22.90
2019-06-20T19:39:22.794Z,23.00
2019-06-20T19:41:56.665Z,23.00
2019-06-20T19:44:30.603Z,23.00
2019-06-20T19:47:07.274Z,22.90
2019-06-20T19:49:41.115Z,22.90
2019-06-20T19:52:15.118Z,22.90
2019-06-20T19:54:49.115Z,22.90
2019-06-20T19:57:22.963Z,22.90
2019-06-20T19:59:56.884Z,22.80
2019-06-20T20:02:30.827Z,22.80
2019-06-20T20:05:19.126Z,22.80
2019-06-20T20:07:45.573Z,22.80
2019-06-20T20:10:35.475Z,22.90
2019-06-20T20:13:09.391Z,22.90
2019-06-20T20:15:43.544Z,22.90
2019-06-20T20:18:17.965Z,22.70
2019-06-20T20:20:52.355Z,22.80
2019-06-20T20:23:26.166Z,22.70
2019-06-20T20:26:00.141Z,22.70
2019-06-20T20:28:33.930Z,22.70
2019-06-20T20:31:07.800Z,22.70
2019-06-20T20:33:41.641Z,22.70
2019-06-20T20:36:24.924Z,22.70
2019-06-20T20:38:54.769Z,22.60
2019-06-20T20:41:29.132Z,22.60
2019-06-20T20:44:04.246Z,22.60
2019-06-20T20:46:38.145Z,22.60
2019-06-20T20:49:11.940Z,22.50
2019-06-20T20:51:46.628Z,22.50
2019-06-20T20:54:20.412Z,22.40
2019-06-20T20:56:54.571Z,22.20
2019-06-20T20:59:28.591Z,22.20
2019-06-20T21:02:02.441Z,22.20
2019-06-20T21:04:36.341Z,22.10
2019-06-20T21:07:10.239Z,22.00
2019-06-20T21:09:47.962Z,21.60
2019-06-20T21:12:22.025Z,21.80
2019-06-20T21:14:55.855Z,21.60
2019-06-20T21:17:29.732Z,21.70
2019-06-20T21:20:04.606Z,21.80
2019-06-20T21:22:39.187Z,21.70
2019-06-20T21:25:14.261Z,21.80
2019-06-20T21:27:48.285Z,21.80
2019-06-20T21:30:22.478Z,21.80
2019-06-20T21:33:00.228Z,21.80
2019-06-20T21:35:37.007Z,21.60
2019-06-20T21:38:10.869Z,21.50
2019-06-20T21:40:44.671Z,21.50
2019-06-20T21:43:18.613Z,21.50
2019-06-20T21:45:52.340Z,21.50
2019-06-20T21:48:26.293Z,21.60
2019-06-20T21:51:00.366Z,21.70
2019-06-20T21:53:34.201Z,21.60
2019-06-20T21:56:08.648Z,21.60
2019-06-20T21:58:42.587Z,21.60
2019-06-20T22:01:18.889Z,21.60
2019-06-20T22:03:52.746Z,21.60
2019-06-20T22:06:28.666Z,21.60
2019-06-20T22:09:02.617Z,21.50
2019-06-20T22:11:38.970Z,21.50
2019-06-20T22:14:12.797Z,21.40
2019-06-20T22:16:46.617Z,21.10
2019-06-20T22:19:20.444Z,21.20
2019-06-20T22:21:54.450Z,21.00
2019-06-20T22:24:28.372Z,20.90
2019-06-20T22:27:02.166Z,21.00
2019-06-20T22:29:36.022Z,21.00
2019-06-20T22:32:10.269Z,20.90
2019-06-20T22:34:44.118Z,20.90
2019-06-20T22:37:18.554Z,21.00
2019-06-20T22:40:01.412Z,21.10
2019-06-20T22:42:35.411Z,21.00
2019-06-20T22:45:12.420Z,20.90
2019-06-20T22:47:46.241Z,21.00
2019-06-20T22:50:20.119Z,21.00
2019-06-20T22:52:53.912Z,21.10
2019-06-20T22:55:27.865Z,20.80
2019-06-20T22:58:01.719Z,20.90
2019-06-20T23:00:35.798Z,20.50
2019-06-20T23:03:09.611Z,20.60
2019-06-20T23:05:45.027Z,20.70
2019-06-20T23:08:18.832Z,20.70
2019-06-20T23:10:52.670Z,20.60
2019-06-20T23:13:26.601Z,20.60
2019-06-20T23:16:00.539Z,20.70
2019-06-20T23:18:34.398Z,20.70
2019-06-20T23:21:08.370Z,20.60
2019-06-20T23:23:42.139Z,20.60
2019-06-20T23:26:15.961Z,20.60
2019-06-20T23:28:51.331Z,20.60
2019-06-20T23:31:25.203Z,20.60
2019-06-20T23:33:59.081Z,20.50
2019-06-20T23:36:36.627Z,20.40
2019-06-20T23:39:10.527Z,20.40
2019-06-20T23:41:44.499Z,20.30
2019-06-20T23:44:18.427Z,20.30
2019-06-20T23:46:52.362Z,20.30
2019-06-20T23:49:26.207Z,20.30
2019-06-20T23:52:04.461Z,20.30
2019-06-20T23:54:38.263Z,20.30
2019-06-20T23:57:13.309Z,20.20
2019-06-20T23:59:47.265Z,20.30
